createdAt,value
2023-03-15T00:01:16.842Z,6.97
2023-03-15T00:03:45.923Z,7.03
2023-03-15T00:06:14.634Z,7.47
2023-03-15T00:08:47.923Z,7.35
2023-03-15T00:11:18.331Z,7.33
2023-03-15T00:13:47.232Z,7.42
2023-03-15T00:16:17.602Z,7.13
2023-03-15T00:18:47.070Z,7.28
2023-03-15T00:21:15.949Z,6.97
2023-03-15T00:23:44.381Z,6.84
2023-03-15T00:26:13.009Z,7.16
2023-03-15T00:28:43.267Z,6.96
2023-03-15T00:31:17.494Z,7.21
2023-03-15T00:33:46.678Z,7.16
2023-03-15T00:36:15.505Z,7.38
2023-03-15T00:38:45.090Z,7.07
2023-03-15T00:41:16.934Z,7.41
2023-03-15T00:43:47.858Z,7.35
2023-03-15T00:46:17.269Z,7.03
2023-03-15T00:48:48.226Z,7.09
2023-03-15T00:51:19.125Z,7.35
2023-03-15T00:53:48.956Z,7.41
2023-03-15T00:56:20.933Z,6.96
2023-03-15T00:58:52.907Z,7.41
2023-03-15T01:01:25.145Z,7.20
2023-03-15T01:03:54.261Z,7.39
2023-03-15T01:06:25.530Z,7.36
2023-03-15T01:08:55.870Z,7.45
2023-03-15T01:11:28.146Z,7.26
2023-03-15T01:14:00.662Z,6.98
2023-03-15T01:16:29.696Z,7.13
2023-03-15T01:18:58.029Z,7.23
2023-03-15T01:21:26.514Z,7.46
2023-03-15T01:23:55.576Z,7.14
2023-03-15T01:26:24.555Z,7.16
2023-03-15T01:28:52.932Z,6.87
2023-03-15T01:31:25.694Z,7.24
2023-03-15T01:33:54.050Z,6.96
2023-03-15T01:36:22.394Z,6.95
2023-03-15T01:38:51.093Z,7.19
2023-03-15T01:41:20.304Z,6.77
2023-03-15T01:43:48.600Z,7.20
2023-03-15T01:46:30.096Z,6.89
2023-03-15T01:49:08.560Z,7.09
2023-03-15T01:51:41.748Z,6.81
2023-03-15T01:54:17.041Z,7.01
2023-03-15T01:56:48.058Z,7.20
2023-03-15T01:59:23.080Z,7.39
2023-03-15T02:01:54.596Z,7.27
2023-03-15T02:04:26.770Z,6.56
2023-03-15T02:07:00.573Z,7.08
2023-03-15T02:09:37.335Z,7.32
2023-03-15T02:12:07.010Z,7.37
2023-03-15T02:14:36.738Z,7.32
2023-03-15T02:17:06.911Z,7.25
2023-03-15T02:19:51.095Z,6.94
2023-03-15T02:22:33.480Z,6.80
2023-03-15T02:25:11.200Z,6.88
2023-03-15T02:27:41.545Z,7.19
2023-03-15T02:30:13.052Z,7.42
2023-03-15T02:32:41.704Z,7.48
2023-03-15T02:35:10.677Z,7.44
2023-03-15T02:37:39.122Z,7.29
2023-03-15T02:40:21.027Z,7.54
2023-03-15T02:42:56.373Z,7.57
2023-03-15T02:45:26.610Z,7.42
2023-03-15T02:47:55.272Z,6.98
2023-03-15T02:50:23.482Z,6.84
2023-03-15T02:52:52.603Z,7.34
2023-03-15T02:55:21.859Z,7.36
2023-03-15T02:57:52.280Z,7.24
2023-03-15T03:00:21.390Z,7.15
2023-03-15T03:02:50.460Z,7.18
2023-03-15T03:05:19.948Z,7.16
2023-03-15T03:07:50.174Z,6.95
2023-03-15T03:10:20.871Z,7.06
2023-03-15T03:12:53.373Z,6.93
2023-03-15T03:15:23.705Z,7.06
2023-03-15T03:17:52.103Z,7.08
2023-03-15T03:20:22.546Z,7.01
2023-03-15T03:22:50.934Z,6.95
2023-03-15T03:25:19.620Z,6.92
2023-03-15T03:27:47.872Z,6.94
2023-03-15T03:30:16.618Z,6.89
2023-03-15T03:32:46.325Z,6.92
2023-03-15T03:35:16.122Z,6.83
2023-03-15T03:37:44.576Z,6.83
2023-03-15T03:40:15.188Z,6.81
2023-03-15T03:42:43.527Z,6.71
2023-03-15T03:45:12.881Z,6.73
2023-03-15T03:47:41.165Z,6.66
2023-03-15T03:50:12.909Z,6.62
2023-03-15T03:52:43.889Z,6.65
2023-03-15T03:55:13.697Z,6.65
2023-03-15T03:57:42.489Z,6.60
2023-03-15T04:00:14.960Z,6.55
2023-03-15T04:02:43.868Z,6.55
2023-03-15T04:05:13.919Z,6.49
2023-03-15T04:07:42.507Z,6.37
2023-03-15T04:10:14.938Z,6.48
2023-03-15T04:12:44.257Z,6.41
2023-03-15T04:15:13.232Z,6.44
2023-03-15T04:17:41.545Z,6.43
2023-03-15T04:20:12.965Z,6.38
2023-03-15T04:22:49.666Z,6.40
2023-03-15T04:25:18.291Z,6.34
2023-03-15T04:27:58.631Z,6.28
2023-03-15T04:30:28.472Z,5.18
2023-03-15T04:32:59.256Z,5.93
2023-03-15T04:35:28.349Z,5.61
2023-03-15T04:37:58.752Z,6.05
2023-03-15T04:40:28.230Z,5.60
2023-03-15T04:42:56.898Z,5.82
2023-03-15T04:45:26.135Z,5.59
2023-03-15T04:47:55.509Z,6.12
2023-03-15T04:50:24.959Z,6.47
2023-03-15T04:52:53.591Z,6.30
2023-03-15T04:55:23.353Z,6.44
2023-03-15T04:57:51.717Z,6.58
2023-03-15T05:00:20.711Z,6.62
2023-03-15T05:02:54.879Z,6.58
2023-03-15T05:05:24.498Z,6.57
2023-03-15T05:07:52.878Z,6.77
2023-03-15T05:10:22.754Z,7.00
2023-03-15T05:12:51.180Z,7.13
2023-03-15T05:15:19.730Z,7.15
2023-03-15T05:17:48.881Z,7.23
2023-03-15T05:20:17.932Z,7.00
2023-03-15T05:22:46.076Z,7.17
2023-03-15T05:25:16.256Z,7.26
2023-03-15T05:27:46.840Z,7.28
2023-03-15T05:30:19.641Z,7.32
2023-03-15T05:32:48.114Z,7.32
2023-03-15T05:35:16.720Z,7.29
2023-03-15T05:37:45.346Z,7.23
2023-03-15T05:40:15.477Z,7.25
2023-03-15T05:42:45.553Z,7.07
2023-03-15T05:45:14.247Z,7.18
2023-03-15T05:47:42.589Z,7.14
2023-03-15T05:50:12.265Z,7.03
2023-03-15T05:52:40.608Z,6.92
2023-03-15T05:55:10.092Z,6.93
2023-03-15T05:57:38.387Z,6.96
2023-03-15T06:00:13.007Z,6.90
2023-03-15T06:02:41.572Z,6.91
2023-03-15T06:05:10.894Z,6.91
2023-03-15T06:07:39.533Z,6.83
2023-03-15T06:10:09.464Z,6.90
2023-03-15T06:12:38.185Z,6.88
2023-03-15T06:15:09.767Z,6.88
2023-03-15T06:17:38.071Z,6.83
2023-03-15T06:20:07.905Z,6.81
2023-03-15T06:22:36.280Z,6.79
2023-03-15T06:25:05.002Z,6.81
2023-03-15T06:27:33.437Z,6.85
2023-03-15T06:30:01.924Z,6.88
2023-03-15T06:32:34.858Z,6.86
2023-03-15T06:35:04.990Z,6.78
2023-03-15T06:37:35.659Z,6.83
2023-03-15T06:40:07.363Z,6.79
2023-03-15T06:42:35.791Z,6.85
2023-03-15T06:45:05.420Z,6.78
2023-03-15T06:47:35.278Z,6.85
2023-03-15T06:50:04.504Z,6.89
2023-03-15T06:52:32.888Z,6.96
2023-03-15T06:55:01.654Z,6.97
2023-03-15T06:57:30.159Z,6.93
2023-03-15T06:59:58.653Z,7.16
2023-03-15T07:02:26.947Z,6.91
2023-03-15T07:04:56.948Z,6.89
2023-03-15T07:07:25.263Z,6.90
2023-03-15T07:09:55.226Z,7.08
2023-03-15T07:12:23.807Z,7.08
2023-03-15T07:14:52.202Z,7.28
2023-03-15T07:17:20.530Z,7.57
2023-03-15T07:19:56.212Z,7.56
2023-03-15T07:22:26.789Z,7.76
2023-03-15T07:25:08.710Z,7.49
2023-03-15T07:27:37.123Z,7.86
2023-03-15T07:30:09.611Z,7.77
2023-03-15T07:32:39.008Z,7.71
2023-03-15T07:35:08.197Z,8.04
2023-03-15T07:37:44.124Z,8.00
2023-03-15T07:40:16.061Z,8.00
2023-03-15T07:42:44.575Z,8.16
2023-03-15T07:45:13.386Z,8.22
2023-03-15T07:47:42.069Z,8.32
2023-03-15T07:50:16.445Z,8.35
2023-03-15T07:52:46.670Z,8.46
2023-03-15T07:55:15.045Z,8.45
2023-03-15T07:57:43.272Z,8.96
2023-03-15T08:00:14.586Z,9.32
2023-03-15T08:02:42.858Z,9.57
2023-03-15T08:05:11.620Z,10.11
2023-03-15T08:07:39.875Z,10.00
2023-03-15T08:10:11.425Z,9.60
2023-03-15T08:12:42.926Z,9.98
2023-03-15T08:15:13.479Z,9.95
2023-03-15T08:17:43.420Z,10.20
2023-03-15T08:20:14.982Z,9.95
2023-03-15T08:22:44.569Z,10.44
2023-03-15T08:25:17.152Z,10.08
2023-03-15T08:27:45.864Z,9.97
2023-03-15T08:30:17.008Z,10.59
2023-03-15T08:32:47.464Z,10.43
2023-03-15T08:35:18.383Z,10.57
2023-03-15T08:37:47.930Z,10.27
2023-03-15T08:40:24.873Z,10.61
2023-03-15T08:42:53.964Z,10.76
2023-03-15T08:45:24.011Z,10.69
2023-03-15T08:47:55.448Z,11.12
2023-03-15T08:50:24.378Z,10.48
2023-03-15T08:52:54.689Z,10.76
2023-03-15T08:55:24.528Z,10.51
2023-03-15T08:57:53.006Z,10.43
2023-03-15T09:00:23.038Z,10.46
2023-03-15T09:02:53.474Z,10.25
2023-03-15T09:05:24.137Z,11.21
2023-03-15T09:07:54.018Z,10.87
2023-03-15T09:10:24.731Z,11.38
2023-03-15T09:12:54.225Z,11.14
2023-03-15T09:15:22.982Z,11.10
2023-03-15T09:17:52.076Z,11.22
2023-03-15T09:20:22.926Z,11.28
2023-03-15T09:22:53.721Z,11.44
2023-03-15T09:25:25.197Z,11.69
2023-03-15T09:27:53.841Z,11.37
2023-03-15T09:30:22.573Z,11.75
2023-03-15T09:32:51.510Z,11.17
2023-03-15T09:35:23.510Z,11.65
2023-03-15T09:37:52.176Z,11.77
2023-03-15T09:40:25.591Z,11.62
2023-03-15T09:43:22.532Z,11.47
2023-03-15T09:46:07.644Z,12.19
2023-03-15T09:48:42.837Z,12.09
2023-03-15T09:51:17.960Z,12.24
2023-03-15T09:53:55.585Z,11.55
2023-03-15T09:56:31.115Z,11.61
2023-03-15T09:59:03.080Z,12.36
2023-03-15T10:01:36.942Z,11.89
2023-03-15T10:04:14.574Z,12.56
2023-03-15T10:06:49.237Z,12.26
2023-03-15T10:09:26.626Z,12.68
2023-03-15T10:12:05.460Z,12.78
2023-03-15T10:15:09.959Z,13.10
2023-03-15T10:17:48.689Z,12.52
2023-03-15T10:20:22.652Z,13.07
2023-03-15T10:22:59.248Z,12.80
2023-03-15T10:25:29.916Z,12.91
2023-03-15T10:28:05.148Z,13.42
2023-03-15T10:30:36.554Z,13.60
2023-03-15T10:33:20.611Z,12.76
2023-03-15T10:35:49.904Z,12.94
2023-03-15T10:38:21.527Z,13.48
2023-03-15T10:40:51.877Z,13.46
2023-03-15T10:43:25.292Z,13.26
2023-03-15T10:46:02.589Z,13.38
2023-03-15T10:48:33.148Z,13.60
2023-03-15T10:51:06.344Z,13.35
2023-03-15T10:53:35.292Z,12.56
2023-03-15T10:56:08.672Z,13.66
2023-03-15T10:59:01.687Z,13.74
2023-03-15T11:01:37.673Z,13.30
2023-03-15T11:04:17.907Z,13.22
2023-03-15T11:06:50.814Z,13.84
2023-03-15T11:09:23.497Z,13.12
2023-03-15T11:12:01.272Z,13.19
2023-03-15T11:14:38.488Z,14.22
2023-03-15T11:17:16.101Z,14.62
2023-03-15T11:19:55.072Z,14.14
2023-03-15T11:22:24.325Z,14.18
2023-03-15T11:24:54.550Z,14.11
2023-03-15T11:27:26.058Z,14.33
2023-03-15T11:30:00.274Z,14.24
2023-03-15T11:32:32.988Z,14.65
2023-03-15T11:35:05.767Z,14.75
2023-03-15T11:37:40.450Z,14.62
2023-03-15T11:40:22.141Z,14.95
2023-03-15T11:42:56.062Z,15.05
2023-03-15T11:45:36.656Z,15.08
2023-03-15T11:48:14.226Z,15.09
2023-03-15T11:50:42.882Z,14.18
2023-03-15T11:53:15.539Z,14.79
2023-03-15T11:55:51.437Z,15.03
2023-03-15T11:58:33.507Z,14.56
2023-03-15T12:01:08.181Z,14.74
2023-03-15T12:03:41.544Z,14.88
2023-03-15T12:06:38.949Z,15.25
2023-03-15T12:09:49.855Z,14.23
2023-03-15T12:12:45.852Z,14.58
2023-03-15T12:15:47.062Z,14.87
2023-03-15T12:18:41.127Z,15.29
2023-03-15T12:21:20.630Z,15.39
2023-03-15T12:24:00.050Z,15.16
2023-03-15T12:26:39.543Z,15.59
2023-03-15T12:29:16.081Z,15.47
2023-03-15T12:32:07.695Z,15.40
2023-03-15T12:34:49.135Z,15.40
2023-03-15T12:37:22.604Z,15.29
2023-03-15T12:39:53.950Z,14.89
2023-03-15T12:43:03.364Z,14.88
2023-03-15T12:45:45.518Z,14.96
2023-03-15T12:48:30.081Z,15.59
2023-03-15T12:51:34.686Z,15.87
2023-03-15T12:54:05.781Z,15.86
2023-03-15T12:56:55.711Z,15.76
2023-03-15T12:59:33.435Z,15.25
2023-03-15T13:02:04.871Z,15.38
2023-03-15T13:04:33.661Z,15.42
2023-03-15T13:07:24.684Z,15.84
2023-03-15T13:10:23.752Z,15.66
2023-03-15T13:12:59.724Z,15.74
2023-03-15T13:15:35.372Z,16.26
2023-03-15T13:18:18.946Z,15.35
2023-03-15T13:21:06.466Z,16.48
2023-03-15T13:23:36.315Z,15.68
2023-03-15T13:26:21.656Z,15.79
2023-03-15T13:28:55.692Z,15.77
2023-03-15T13:31:28.043Z,16.15
2023-03-15T13:34:00.310Z,16.15
2023-03-15T13:36:54.973Z,16.59
2023-03-15T13:39:30.940Z,16.66
2023-03-15T13:42:05.900Z,16.43
2023-03-15T13:44:35.371Z,16.17
2023-03-15T13:47:03.653Z,16.43
2023-03-15T13:49:34.755Z,16.22
2023-03-15T13:52:12.384Z,16.29
2023-03-15T13:54:44.470Z,15.46
2023-03-15T13:57:16.517Z,16.05
2023-03-15T13:59:52.693Z,16.01
2023-03-15T14:02:26.103Z,16.26
2023-03-15T14:04:59.652Z,16.07
2023-03-15T14:07:35.255Z,15.55
2023-03-15T14:10:29.877Z,16.00
2023-03-15T14:13:00.832Z,16.25
2023-03-15T14:15:39.506Z,15.90
2023-03-15T14:18:20.649Z,16.33
2023-03-15T14:20:55.623Z,16.52
2023-03-15T14:23:27.430Z,16.81
2023-03-15T14:26:04.725Z,16.55
2023-03-15T14:28:34.168Z,15.75
2023-03-15T14:31:03.490Z,15.86
2023-03-15T14:33:37.528Z,15.93
2023-03-15T14:36:10.098Z,16.05
2023-03-15T14:38:40.290Z,16.05
2023-03-15T14:41:26.629Z,16.58
2023-03-15T14:43:56.434Z,16.29
2023-03-15T14:46:24.860Z,15.46
2023-03-15T14:48:53.703Z,16.76
2023-03-15T14:51:24.592Z,16.03
2023-03-15T14:53:57.424Z,16.60
2023-03-15T14:56:27.560Z,16.32
2023-03-15T14:58:55.812Z,16.24
2023-03-15T15:01:28.276Z,16.31
2023-03-15T15:04:00.258Z,15.93
2023-03-15T15:06:31.897Z,15.85
2023-03-15T15:09:02.094Z,16.48
2023-03-15T15:11:31.731Z,16.66
2023-03-15T15:14:00.074Z,16.23
2023-03-15T15:16:28.536Z,16.63
2023-03-15T15:18:56.786Z,16.15
2023-03-15T15:21:33.532Z,16.00
2023-03-15T15:24:04.188Z,15.61
2023-03-15T15:26:34.587Z,15.96
2023-03-15T15:29:03.142Z,15.86
2023-03-15T15:31:34.397Z,15.70
2023-03-15T15:34:03.251Z,16.03
2023-03-15T15:36:34.889Z,15.40
2023-03-15T15:39:07.396Z,15.77
2023-03-15T15:41:37.071Z,15.69
2023-03-15T15:44:05.507Z,15.78
2023-03-15T15:46:33.823Z,15.62
2023-03-15T15:49:02.074Z,15.65
2023-03-15T15:51:32.738Z,15.46
2023-03-15T15:54:03.028Z,15.53
2023-03-15T15:56:34.829Z,15.29
2023-03-15T15:59:07.868Z,15.51
2023-03-15T16:01:56.816Z,15.42
2023-03-15T16:04:28.747Z,15.38
2023-03-15T16:07:00.310Z,15.28
2023-03-15T16:09:31.724Z,15.22
2023-03-15T16:12:00.284Z,14.71
2023-03-15T16:14:29.993Z,14.61
2023-03-15T16:16:58.247Z,14.79
2023-03-15T16:19:26.690Z,15.04
2023-03-15T16:21:58.225Z,15.06
2023-03-15T16:24:30.805Z,14.64
2023-03-15T16:27:03.183Z,14.31
2023-03-15T16:29:39.194Z,14.45
2023-03-15T16:32:19.237Z,14.30
2023-03-15T16:34:54.901Z,13.71
2023-03-15T16:37:27.438Z,13.60
2023-03-15T16:39:57.177Z,13.91
2023-03-15T16:42:26.238Z,13.72
2023-03-15T16:44:56.163Z,13.59
2023-03-15T16:47:24.985Z,13.29
2023-03-15T16:49:53.297Z,12.95
2023-03-15T16:52:22.316Z,12.77
2023-03-15T16:54:50.931Z,13.13
2023-03-15T16:57:23.244Z,13.03
2023-03-15T16:59:51.969Z,12.97
2023-03-15T17:02:29.075Z,13.15
2023-03-15T17:04:57.809Z,12.26
2023-03-15T17:07:32.889Z,12.85
2023-03-15T17:10:09.752Z,12.86
2023-03-15T17:12:39.344Z,12.79
2023-03-15T17:15:09.693Z,12.57
2023-03-15T17:17:39.786Z,12.68
2023-03-15T17:20:17.080Z,12.57
2023-03-15T17:22:53.097Z,12.66
2023-03-15T17:25:24.475Z,12.04
2023-03-15T17:27:53.633Z,12.37
2023-03-15T17:30:26.372Z,12.08
2023-03-15T17:32:57.428Z,12.05
2023-03-15T17:35:30.830Z,11.66
2023-03-15T17:37:59.853Z,11.96
2023-03-15T18:00:45.920Z,11.00
2023-03-15T18:03:31.652Z,11.47
2023-03-15T18:09:15.517Z,11.20
2023-03-15T18:11:49.357Z,11.36
2023-03-15T18:23:34.203Z,11.19
2023-03-15T18:26:44.713Z,11.18
2023-03-15T18:37:59.336Z,11.19
2023-03-15T18:40:52.093Z,10.93
2023-03-15T18:44:06.736Z,11.06
2023-03-15T18:46:55.077Z,10.85
2023-03-15T19:04:08.310Z,10.55
2023-03-15T19:06:48.882Z,10.64
2023-03-15T19:18:43.426Z,10.82
2023-03-15T19:45:36.453Z,10.62
2023-03-15T19:54:32.259Z,10.13
2023-03-15T19:57:15.312Z,10.02
2023-03-15T19:59:50.519Z,9.84
2023-03-15T20:08:28.887Z,9.91
2023-03-15T20:11:20.441Z,10.02
2023-03-15T20:17:04.999Z,9.25
2023-03-15T20:22:41.481Z,9.52
2023-03-15T20:37:44.323Z,9.79
2023-03-15T20:40:45.681Z,9.46
2023-03-15T20:43:18.810Z,9.12
2023-03-15T20:53:07.398Z,9.70
2023-03-15T20:55:51.341Z,9.71
2023-03-15T21:01:22.904Z,9.08
2023-03-15T21:03:57.052Z,9.78
2023-03-15T21:06:32.001Z,9.01
2023-03-15T21:09:04.362Z,9.38
2023-03-15T21:11:36.103Z,9.39
2023-03-15T21:14:06.255Z,9.61
2023-03-15T21:16:36.138Z,9.35
2023-03-15T21:19:06.681Z,8.81
2023-03-15T21:21:37.819Z,9.00
2023-03-15T21:24:09.417Z,9.17
2023-03-15T21:26:40.065Z,9.36
2023-03-15T21:29:12.979Z,9.87
2023-03-15T21:31:42.635Z,9.45
2023-03-15T21:34:16.509Z,9.17
2023-03-15T21:36:47.648Z,9.08
2023-03-15T21:39:17.845Z,9.13
2023-03-15T21:41:47.617Z,9.01
2023-03-15T21:44:23.026Z,9.29
2023-03-15T21:46:54.622Z,9.26
2023-03-15T21:49:31.338Z,8.72
2023-03-15T21:52:02.687Z,9.32
2023-03-15T21:54:33.259Z,8.79
2023-03-15T21:57:04.343Z,8.80
2023-03-15T21:59:33.247Z,8.91
2023-03-15T22:02:03.115Z,8.74
2023-03-15T22:04:34.239Z,8.96
2023-03-15T22:07:09.897Z,8.70
2023-03-15T22:09:41.947Z,8.54
2023-03-15T22:12:14.167Z,9.02
2023-03-15T22:14:51.650Z,8.79
2023-03-15T22:17:29.076Z,8.68
2023-03-15T22:22:56.652Z,9.11
2023-03-15T22:25:26.709Z,8.88
2023-03-15T22:27:59.057Z,8.99
2023-03-15T22:30:32.836Z,9.36
2023-03-15T22:33:02.446Z,9.67
2023-03-15T22:35:31.330Z,8.62
2023-03-15T22:38:10.317Z,9.34
2023-03-15T22:40:43.134Z,9.13
2023-03-15T22:43:12.942Z,8.95
2023-03-15T22:45:44.079Z,8.39
2023-03-15T22:48:13.432Z,8.96
2023-03-15T22:50:42.080Z,9.03
2023-03-15T22:53:12.824Z,8.96
2023-03-15T22:55:45.811Z,8.74
2023-03-15T22:58:15.613Z,9.27
2023-03-15T23:00:45.558Z,8.55
2023-03-15T23:03:14.822Z,8.63
2023-03-15T23:05:44.417Z,8.63
2023-03-15T23:08:15.740Z,8.34
2023-03-15T23:10:45.596Z,8.56
2023-03-15T23:13:14.674Z,9.00
2023-03-15T23:15:45.195Z,8.78
2023-03-15T23:18:17.279Z,8.56
2023-03-15T23:20:47.014Z,8.41
2023-03-15T23:23:17.876Z,8.73
2023-03-15T23:28:40.961Z,8.29
2023-03-15T23:31:09.379Z,8.56
2023-03-15T23:33:37.756Z,8.48
2023-03-15T23:36:08.117Z,8.60
2023-03-15T23:38:38.102Z,8.55
2023-03-15T23:41:07.015Z,9.04
2023-03-15T23:43:35.295Z,8.63
2023-03-15T23:46:06.211Z,8.89
2023-03-15T23:48:36.425Z,8.98
2023-03-15T23:51:05.306Z,8.71
2023-03-15T23:53:33.993Z,8.94
2023-03-15T23:56:03.945Z,8.69
2023-03-15T23:58:32.362Z,8.51
